Time;durP1;ratioP1;P1;durP2;ratioP2;P2;SDS_P1;SDS_P2;PMS_P1;PMS_P2;Temp;Humidity;BMP_temperature;BMP_pressure;BME280_temperature;BME280_humidity;BME280_pressure;Samples;Min_cycle;Max_cycle;Signal;HPM_P1;HPM_P2
2023/12/11 00:07:34;;;;;;;0.90;0.40;;;;;;;;;;20665167;28;20235;-81
2023/12/11 00:17:35;;;;;;;0.40;0.27;;;;;;;;;;20597132;28;20259;-81
2023/12/11 00:27:38;;;;;;;0.60;0.30;;;;;;;;;;20612597;28;20228;-81
2023/12/11 00:37:39;;;;;;;0.70;0.50;;;;;;;;;;20650753;28;20219;-82
2023/12/11 00:47:41;;;;;;;1.73;0.30;;;;;;;;;;20644781;28;20247;-80
2023/12/11 00:57:43;;;;;;;0.30;0.30;;;;;;;;;;20627253;28;20278;-81
2023/12/11 01:07:45;;;;;;;0.97;0.30;;;;;;;;;;20646870;28;20220;-81
2023/12/11 01:17:46;;;;;;;5.87;3.33;;;;;;;;;;20662454;28;20216;-80
2023/12/11 01:27:48;;;;;;;3.50;2.03;;;;;;;;;;20637555;28;20274;-81
2023/12/11 01:37:50;;;;;;;0.60;0.30;;;;;;;;;;20680687;28;20216;-80
2023/12/11 01:47:51;;;;;;;0.43;0.20;;;;;;;;;;20655663;28;20296;-81
2023/12/11 01:57:53;;;;;;;0.40;0.17;;;;;;;;;;20655084;28;20212;-81
2023/12/11 02:07:55;;;;;;;0.70;0.30;;;;;;;;;;20629851;28;20219;-82
2023/12/11 02:17:57;;;;;;;0.40;0.20;;;;;;;;;;20617617;28;20261;-81
2023/12/11 02:27:59;;;;;;;0.30;0.20;;;;;;;;;;20666716;28;20235;-81
2023/12/11 02:38:00;;;;;;;1.13;0.40;;;;;;;;;;20673178;28;20224;-82
2023/12/11 02:48:02;;;;;;;0.20;0.10;;;;;;;;;;20616284;28;20279;-81
2023/12/11 02:58:05;;;;;;;0.30;0.30;;;;;;;;;;20670766;28;20263;-82
2023/12/11 03:08:06;;;;;;;1.67;0.87;;;;;;;;;;20646302;28;20755;-82
2023/12/11 03:18:08;;;;;;;1.43;0.40;;;;;;;;;;20648127;28;20212;-82
2023/12/11 03:28:10;;;;;;;1.00;0.40;;;;;;;;;;20632933;28;20274;-82
2023/12/11 03:38:12;;;;;;;0.60;0.30;;;;;;;;;;20637965;28;20271;-81
2023/12/11 03:48:13;;;;;;;0.70;0.37;;;;;;;;;;20620969;28;20243;-82
2023/12/11 03:58:15;;;;;;;1.20;0.30;;;;;;;;;;20610630;28;20223;-82
2023/12/11 04:08:17;;;;;;;0.30;0.20;;;;;;;;;;20631260;28;20232;-81
2023/12/11 04:18:18;;;;;;;2.07;0.40;;;;;;;;;;20655505;28;20212;-81
2023/12/11 04:28:21;;;;;;;0.50;0.30;;;;;;;;;;20662238;28;20302;-81
2023/12/11 04:38:22;;;;;;;0.40;0.23;;;;;;;;;;20662772;28;20549;-80
2023/12/11 04:48:24;;;;;;;0.10;0.10;;;;;;;;;;20646009;28;20286;-80
2023/12/11 04:58:27;;;;;;;0.20;0.20;;;;;;;;;;20680855;28;20639;-80
2023/12/11 05:08:28;;;;;;;0.53;0.20;;;;;;;;;;20650199;28;20279;-79
2023/12/11 05:18:30;;;;;;;0.50;0.20;;;;;;;;;;20690752;28;20208;-80
2023/12/11 05:28:32;;;;;;;0.67;0.47;;;;;;;;;;20647748;28;20215;-80
2023/12/11 05:38:34;;;;;;;1.67;0.77;;;;;;;;;;20613229;28;20700;-81
2023/12/11 05:48:36;;;;;;;0.57;0.37;;;;;;;;;;20669593;28;20228;-80
2023/12/11 05:58:38;;;;;;;0.20;0.13;;;;;;;;;;20659948;28;20219;-82
2023/12/11 06:08:40;;;;;;;2.47;0.70;;;;;;;;;;20656083;28;20247;-81
2023/12/11 06:18:42;;;;;;;0.30;0.20;;;;;;;;;;20682632;28;20294;-82
2023/12/11 06:28:44;;;;;;;1.30;0.50;;;;;;;;;;20664049;28;20262;-82
2023/12/11 06:38:46;;;;;;;1.30;0.63;;;;;;;;;;20615513;28;20270;-82
2023/12/11 06:48:47;;;;;;;0.50;0.40;;;;;;;;;;20637131;28;20298;-82
2023/12/11 06:58:49;;;;;;;1.07;0.60;;;;;;;;;;20660014;28;20208;-81
2023/12/11 07:08:51;;;;;;;1.23;0.43;;;;;;;;;;20656614;28;20219;-81
2023/12/11 07:18:53;;;;;;;0.80;0.40;;;;;;;;;;20613189;28;20215;-83
2023/12/11 07:28:55;;;;;;;1.10;0.50;;;;;;;;;;20663063;28;20301;-80
2023/12/11 07:38:57;;;;;;;3.07;0.60;;;;;;;;;;20670024;28;20215;-82
2023/12/11 07:48:58;;;;;;;0.93;0.50;;;;;;;;;;20618427;28;20290;-82
2023/12/11 07:59:00;;;;;;;0.70;0.50;;;;;;;;;;20656771;28;20247;-81
2023/12/11 08:09:03;;;;;;;1.87;0.60;;;;;;;;;;20642576;28;20705;-82
2023/12/11 08:19:05;;;;;;;1.70;0.50;;;;;;;;;;20622585;28;20224;-82
2023/12/11 08:29:06;;;;;;;2.50;0.50;;;;;;;;;;20618599;28;20998;-82
2023/12/11 08:39:09;;;;;;;1.30;0.50;;;;;;;;;;20666204;28;20203;-82
2023/12/11 08:49:11;;;;;;;1.67;0.70;;;;;;;;;;20663978;28;20589;-82
2023/12/11 08:59:13;;;;;;;2.03;0.90;;;;;;;;;;20644447;28;20228;-82
2023/12/11 09:09:14;;;;;;;2.57;0.87;;;;;;;;;;20633475;28;20381;-82
2023/12/11 09:19:17;;;;;;;1.93;0.90;;;;;;;;;;20638731;28;20272;-82
2023/12/11 09:29:18;;;;;;;3.97;0.50;;;;;;;;;;20611307;28;20224;-82
2023/12/11 09:39:22;;;;;;;2.23;0.70;;;;;;;;;;20653151;28;20557;-81
2023/12/11 09:49:24;;;;;;;1.97;0.70;;;;;;;;;;20677446;28;20689;-82
2023/12/11 09:59:27;;;;;;;2.80;0.87;;;;;;;;;;20655168;28;20759;-82
2023/12/11 10:09:30;;;;;;;3.33;0.87;;;;;;;;;;20652678;28;20617;-82
2023/12/11 10:19:32;;;;;;;7.27;1.00;;;;;;;;;;20680989;28;20216;-82
2023/12/11 10:29:36;;;;;;;4.07;0.80;;;;;;;;;;20680848;28;20238;-81
2023/12/11 10:39:37;;;;;;;4.60;1.37;;;;;;;;;;20651721;28;20247;-82
2023/12/11 10:49:42;;;;;;;4.00;1.60;;;;;;;;;;20672904;28;20290;-82
2023/12/11 10:59:45;;;;;;;7.33;1.33;;;;;;;;;;20642557;28;20290;-83
2023/12/11 11:10:13;;;;;;;2.83;0.83;;;10.30;99.90;;;;;;20634574;28;20286;-83
2023/12/11 11:20:17;;;;;;;3.90;1.10;;;;;;;;;;20645604;28;20212;-82
2023/12/11 11:30:37;;;;;;;1.67;0.87;;;;;;;;;;20631168;28;20228;-82
2023/12/11 11:40:39;;;;;;;2.07;0.80;;;;;;;;;;20647632;28;20232;-83
2023/12/11 11:50:51;;;;;;;2.00;0.60;;;;;;;;;;20638497;28;20743;-83
2023/12/11 12:01:02;;;;;;;4.73;0.77;;;;;;;;;;20642254;28;20244;-83
2023/12/11 12:11:04;;;;;;;3.53;1.33;;;;;;;;;;20652049;28;20552;-82
2023/12/11 12:21:09;;;;;;;3.37;0.80;;;;;;;;;;20691670;28;20206;-83
2023/12/11 12:31:11;;;;;;;2.70;1.13;;;;;;;;;;20636407;28;20298;-82
2023/12/11 12:41:13;;;;;;;3.37;1.40;;;10.70;99.90;;;;;;20645662;28;20620;-82
2023/12/11 12:51:15;;;;;;;3.03;0.73;;;;;;;;;;20615248;28;20301;-84
2023/12/11 13:01:17;;;;;;;3.43;1.10;;;;;;;;;;20643512;28;20216;-82
2023/12/11 13:11:19;;;;;;;2.27;0.77;;;;;;;;;;20645430;28;20317;-83
2023/12/11 13:21:21;;;;;;;1.73;0.60;;;;;;;;;;20598655;28;20204;-83
2023/12/11 13:31:24;;;;;;;5.63;1.00;;;;;;;;;;20608887;28;20681;-82
2023/12/11 13:41:25;;;;;;;3.80;0.80;;;;;;;;;;20631755;28;20208;-82
2023/12/11 13:51:27;;;;;;;1.33;0.53;;;;;;;;;;20625488;28;20636;-82
2023/12/11 14:01:29;;;;;;;3.23;1.20;;;;;;;;;;20625428;28;20217;-82
2023/12/11 14:11:30;;;;;;;2.23;0.70;;;;;;;;;;20605444;28;20232;-82
2023/12/11 14:21:32;;;;;;;3.03;1.07;;;;;;;;;;20624621;28;20216;-81
2023/12/11 14:31:34;;;;;;;5.77;1.37;;;;;;;;;;20649261;28;20646;-82
2023/12/11 14:41:41;;;;;;;4.90;1.23;;;10.80;99.90;;;;;;20659680;28;20315;-82
2023/12/11 14:51:43;;;;;;;6.17;0.93;;;;;;;;;;20630879;28;20283;-81
2023/12/11 15:01:47;;;;;;;1.83;0.60;;;;;;;;;;20637854;28;20211;-82
2023/12/11 15:11:49;;;;;;;2.40;0.57;;;;;;;;;;20609788;28;20231;-82
2023/12/11 15:21:52;;;;;;;2.87;0.93;;;;;;;;;;20629342;28;20224;-82
2023/12/11 15:31:53;;;;;;;4.17;1.00;;;;;;;;;;20637726;28;20301;-81
2023/12/11 15:41:55;;;;;;;4.07;0.90;;;;;;;;;;20670128;28;20212;-82
2023/12/11 15:51:56;;;;;;;3.70;1.43;;;;;;;;;;20643479;28;20231;-81
2023/12/11 16:01:59;;;;;;;2.63;1.00;;;;;;;;;;20675881;28;20207;-81
2023/12/11 16:12:00;;;;;;;4.43;1.20;;;;;;;;;;20633730;28;20721;-82
2023/12/11 16:22:02;;;;;;;5.27;1.10;;;;;;;;;;20656052;28;20233;-81
2023/12/11 16:32:04;;;;;;;2.53;0.80;;;;;;;;;;20626655;28;20278;-82
2023/12/11 16:42:05;;;;;;;3.17;0.97;;;;;;;;;;20624771;28;20231;-82
2023/12/11 16:52:07;;;;;;;6.33;1.07;;;;;;;;;;20645201;28;20764;-82
2023/12/11 17:02:09;;;;;;;2.57;0.67;;;;;;;;;;20644890;28;20219;-82
2023/12/11 17:12:12;;;;;;;4.20;1.10;;;;;;;;;;20686486;28;20267;-82
2023/12/11 17:22:14;;;;;;;1.83;0.67;;;;;;;;;;20685951;28;20251;-82
2023/12/11 17:32:16;;;;;;;3.13;1.50;;;;;;;;;;20653885;28;20243;-82
2023/12/11 17:42:17;;;;;;;2.03;1.07;;;;;;;;;;20638137;28;20274;-82
2023/12/11 17:52:19;;;;;;;6.73;1.07;;;;;;;;;;20655359;28;20292;-82
2023/12/11 18:02:21;;;;;;;2.67;1.10;;;;;;;;;;20633387;28;20688;-81
2023/12/11 18:12:23;;;;;;;1.43;0.77;;;;;;;;;;20625263;28;20633;-83
2023/12/11 18:22:24;;;;;;;3.00;1.10;;;;;;;;;;20657678;28;20216;-81
2023/12/11 18:32:26;;;;;;;3.20;1.10;;;;;;;;;;20657380;28;20232;-82
2023/12/11 18:42:28;;;;;;;5.13;1.10;;;;;;;;;;20636431;28;20282;-83
2023/12/11 18:52:29;;;;;;;3.47;0.93;;;;;;;;;;20636779;28;20228;-82
2023/12/11 19:02:31;;;;;;;2.57;0.77;;;;;;;;;;20662468;28;20223;-82
2023/12/11 19:12:33;;;;;;;4.20;1.00;;;;;;;;;;20641121;28;20713;-83
2023/12/11 19:22:35;;;;;;;3.10;1.20;;;;;;;;;;20665751;28;20693;-81
2023/12/11 19:32:36;;;;;;;5.40;1.17;;;;;;;;;;20650554;28;20318;-82
2023/12/11 19:42:41;;;;;;;5.93;1.30;;;;;;;;;;20692642;28;20216;-83
2023/12/11 19:52:49;;;;;;;7.37;1.33;;;;;;;;;;20672830;28;20220;-82
2023/12/11 20:02:51;;;;;;;2.50;1.10;;;;;;;;;;20657393;28;20259;-82
2023/12/11 20:12:53;;;;;;;5.93;1.33;;;;;;;;;;20644080;28;20279;-82
2023/12/11 20:22:54;;;;;;;4.20;1.60;;;;;;;;;;20634858;28;20756;-82
2023/12/11 20:32:56;;;;;;;4.10;1.20;;;;;;;;;;20654312;28;20295;-82
2023/12/11 20:42:57;;;;;;;1.40;0.60;;;;;;;;;;20640262;28;20589;-82
2023/12/11 20:52:59;;;;;;;2.87;1.00;;;;;;;;;;20648450;28;20231;-84
2023/12/11 21:03:01;;;;;;;6.27;1.00;;;;;;;;;;20650423;28;20705;-84
2023/12/11 21:13:03;;;;;;;3.33;1.00;;;;;;;;;;20629595;28;20231;-83
2023/12/11 21:23:04;;;;;;;3.27;1.27;;;;;;;;;;20626799;28;20672;-84
2023/12/11 21:33:06;;;;;;;2.70;0.90;;;;;;;;;;20635068;28;20310;-84
2023/12/11 21:43:08;;;;;;;3.10;1.10;;;;;;;;;;20641805;28;20609;-83
2023/12/11 21:53:10;;;;;;;2.77;0.90;;;;;;;;;;20656980;28;20633;-82
2023/12/11 22:03:13;;;;;;;6.00;1.23;;;;;;;;;;20648201;28;20211;-84
2023/12/11 22:13:15;;;;;;;5.23;0.97;;;;;;;;;;20681441;28;20295;-84
2023/12/11 22:23:16;;;;;;;5.13;1.40;;;;;;;;;;20633584;28;20685;-84
2023/12/11 22:33:18;;;;;;;6.70;1.60;;;;;;;;;;20652450;28;20227;-84
2023/12/11 22:43:20;;;;;;;4.63;1.53;;;;;;;;;;20634465;28;20212;-84
2023/12/11 22:53:22;;;;;;;4.37;1.60;;;;;;;;;;20633131;28;20216;-83
2023/12/11 23:03:24;;;;;;;4.80;1.33;;;;;;;;;;20644557;28;20263;-83
2023/12/11 23:13:26;;;;;;;5.87;1.33;;;;;;;;;;20617687;28;20283;-83
2023/12/11 23:23:28;;;;;;;4.37;1.70;;;;;;;;;;20677551;28;20716;-83
2023/12/11 23:33:30;;;;;;;6.73;1.57;;;;;;;;;;20624706;28;20573;-84
2023/12/11 23:43:31;;;;;;;4.30;1.53;;;;;;;;;;20629156;28;20568;-84
2023/12/11 23:53:33;;;;;;;4.43;1.80;;;;;;;;;;20655807;28;20244;-82
